createdAt,value
2019-05-25T00:00:54.564Z,2.53
2019-05-25T00:03:23.027Z,2.20
2019-05-25T00:05:51.452Z,2.37
2019-05-25T00:08:20.118Z,2.20
2019-05-25T00:10:48.514Z,2.10
2019-05-25T00:13:16.982Z,2.60
2019-05-25T00:15:45.417Z,2.50
2019-05-25T00:18:13.807Z,2.20
2019-05-25T00:20:42.228Z,2.20
2019-05-25T00:23:10.661Z,2.97
2019-05-25T00:25:39.135Z,2.47
2019-05-25T00:28:07.603Z,2.30
2019-05-25T00:30:36.150Z,2.83
2019-05-25T00:33:04.629Z,2.43
2019-05-25T00:35:33.274Z,2.70
2019-05-25T00:38:01.757Z,2.50
2019-05-25T00:40:30.167Z,2.73
2019-05-25T00:42:58.569Z,2.50
2019-05-25T00:45:26.992Z,2.57
2019-05-25T00:47:55.469Z,2.50
2019-05-25T00:50:23.894Z,2.70
2019-05-25T00:52:52.344Z,2.60
2019-05-25T00:55:20.757Z,2.40
2019-05-25T00:57:49.178Z,2.73
2019-05-25T01:00:18.438Z,2.47
2019-05-25T01:02:46.934Z,3.20
2019-05-25T01:05:15.429Z,2.70
2019-05-25T01:07:43.841Z,2.30
2019-05-25T01:10:12.769Z,2.53
2019-05-25T01:12:41.198Z,2.30
2019-05-25T01:15:11.619Z,2.30
2019-05-25T01:17:40.102Z,2.40
2019-05-25T01:20:09.984Z,2.23
2019-05-25T01:22:38.493Z,2.30
2019-05-25T01:25:08.726Z,2.53
2019-05-25T01:27:37.205Z,2.67
2019-05-25T01:30:07.586Z,2.40
2019-05-25T01:32:36.006Z,2.27
2019-05-25T01:37:53.243Z,2.47
2019-05-25T01:40:21.799Z,2.13
2019-05-25T01:42:50.197Z,2.50
2019-05-25T01:45:18.691Z,2.33
2019-05-25T01:47:47.190Z,2.10
2019-05-25T01:50:15.827Z,2.50
2019-05-25T01:52:44.254Z,2.60
2019-05-25T01:55:12.913Z,2.50
2019-05-25T01:57:41.326Z,2.40
2019-05-25T02:00:10.355Z,2.33
2019-05-25T02:02:38.908Z,2.40
2019-05-25T02:05:07.700Z,2.50
2019-05-25T02:07:36.235Z,2.47
2019-05-25T02:10:09.285Z,3.03
2019-05-25T02:12:37.695Z,2.53
2019-05-25T02:15:10.466Z,2.90
2019-05-25T02:17:38.932Z,3.07
2019-05-25T02:20:07.785Z,2.40
2019-05-25T02:22:36.267Z,2.60
2019-05-25T02:25:16.989Z,2.33
2019-05-25T02:27:37.395Z,2.10
2019-05-25T02:30:07.715Z,2.60
2019-05-25T02:32:36.212Z,2.60
2019-05-25T02:35:06.422Z,2.63
2019-05-25T02:37:34.834Z,2.63
2019-05-25T02:40:04.899Z,2.37
2019-05-25T02:42:33.359Z,2.93
2019-05-25T02:45:01.822Z,2.80
2019-05-25T02:47:30.312Z,5.00
2019-05-25T02:49:58.790Z,3.10
2019-05-25T02:52:27.224Z,2.63
2019-05-25T02:54:55.650Z,2.80
2019-05-25T02:57:24.132Z,2.70
2019-05-25T02:59:52.553Z,2.70
2019-05-25T03:02:21.736Z,2.93
2019-05-25T03:04:50.332Z,3.47
2019-05-25T03:07:19.803Z,3.00
2019-05-25T03:09:50.656Z,3.03
2019-05-25T03:12:19.221Z,3.13
2019-05-25T03:14:47.619Z,3.40
2019-05-25T03:17:16.039Z,3.33
2019-05-25T03:19:44.465Z,3.27
2019-05-25T03:22:12.877Z,3.77
2019-05-25T03:24:41.340Z,3.80
2019-05-25T03:27:09.764Z,5.47
2019-05-25T03:29:38.199Z,3.73
2019-05-25T03:32:06.606Z,3.87
2019-05-25T03:34:35.033Z,4.37
2019-05-25T03:37:03.452Z,4.03
2019-05-25T03:39:31.936Z,5.30
2019-05-25T03:42:00.416Z,4.90
2019-05-25T03:44:28.834Z,5.63
2019-05-25T03:46:57.303Z,5.07
2019-05-25T03:49:25.779Z,5.67
2019-05-25T03:51:54.197Z,5.17
2019-05-25T03:54:22.619Z,5.97
2019-05-25T03:56:51.030Z,5.40
2019-05-25T03:59:19.451Z,4.83
2019-05-25T04:01:47.890Z,5.23
2019-05-25T04:04:16.365Z,5.83
2019-05-25T04:06:44.811Z,5.60
2019-05-25T04:09:13.236Z,5.70
2019-05-25T04:11:41.665Z,6.20
2019-05-25T04:14:10.083Z,6.30
2019-05-25T04:16:38.506Z,6.40
2019-05-25T04:19:06.934Z,5.50
2019-05-25T04:21:35.339Z,6.37
2019-05-25T04:24:04.239Z,6.37
2019-05-25T04:26:32.780Z,6.77
2019-05-25T04:29:01.185Z,6.00
2019-05-25T04:31:29.621Z,6.27
2019-05-25T04:33:58.003Z,6.30
2019-05-25T04:36:26.424Z,5.83
2019-05-25T04:38:54.855Z,7.03
2019-05-25T04:41:23.306Z,6.93
2019-05-25T04:43:51.725Z,6.83
2019-05-25T04:46:21.610Z,6.93
2019-05-25T04:48:50.226Z,5.70
2019-05-25T04:51:18.714Z,10.67
2019-05-25T04:53:47.185Z,16.17
2019-05-25T04:56:15.663Z,7.03
2019-05-25T04:58:44.114Z,6.30
2019-05-25T05:01:12.514Z,7.80
2019-05-25T05:03:40.915Z,7.30
2019-05-25T05:06:09.453Z,7.60
2019-05-25T05:08:37.849Z,7.20
2019-05-25T05:11:06.333Z,7.37
2019-05-25T05:13:34.738Z,8.23
2019-05-25T05:16:03.171Z,7.30
2019-05-25T05:18:31.721Z,7.80
2019-05-25T05:21:00.158Z,7.97
2019-05-25T05:23:28.641Z,7.40
2019-05-25T05:25:57.043Z,7.50
2019-05-25T05:28:25.450Z,9.47
2019-05-25T05:30:54.014Z,8.30
2019-05-25T05:33:22.885Z,7.67
2019-05-25T05:35:52.268Z,7.83
2019-05-25T05:38:21.350Z,8.67
2019-05-25T05:40:50.623Z,8.70
2019-05-25T05:43:20.182Z,9.00
2019-05-25T05:45:51.252Z,8.23
2019-05-25T05:48:22.701Z,8.57
2019-05-25T05:50:52.919Z,8.07
2019-05-25T05:53:23.148Z,7.40
2019-05-25T05:55:51.544Z,7.80
2019-05-25T05:58:19.947Z,6.87
2019-05-25T06:00:48.425Z,7.30
2019-05-25T06:03:16.899Z,7.80
2019-05-25T06:05:45.420Z,7.57
2019-05-25T06:08:13.949Z,7.30
2019-05-25T06:10:42.352Z,7.03
2019-05-25T06:13:10.778Z,7.20
2019-05-25T06:15:39.246Z,6.80
2019-05-25T06:18:07.741Z,8.10
2019-05-25T06:20:36.141Z,7.67
2019-05-25T06:23:08.474Z,7.27
2019-05-25T06:25:34.859Z,6.97
2019-05-25T06:28:03.386Z,8.40
2019-05-25T06:30:31.827Z,6.93
2019-05-25T06:33:00.322Z,7.37
2019-05-25T06:35:28.748Z,5.87
2019-05-25T06:37:57.153Z,5.53
2019-05-25T06:40:25.790Z,6.53
2019-05-25T06:42:55.995Z,6.07
2019-05-25T06:45:24.432Z,5.50
2019-05-25T06:47:52.872Z,5.70
2019-05-25T06:50:21.446Z,5.80
2019-05-25T06:52:49.925Z,5.60
2019-05-25T06:55:18.489Z,6.10
2019-05-25T06:57:46.928Z,6.10
2019-05-25T07:00:16.345Z,6.10
2019-05-25T07:02:44.760Z,7.47
2019-05-25T07:05:13.403Z,6.07
2019-05-25T07:07:41.870Z,5.37
2019-05-25T07:10:10.740Z,6.57
2019-05-25T07:12:39.215Z,5.80
2019-05-25T07:15:08.895Z,6.13
2019-05-25T07:17:37.320Z,6.90
2019-05-25T07:20:09.792Z,7.80
2019-05-25T07:22:38.210Z,7.67
2019-05-25T07:25:07.605Z,7.70
2019-05-25T07:27:36.002Z,9.70
2019-05-25T07:30:06.530Z,9.10
2019-05-25T07:32:35.052Z,10.27
2019-05-25T07:35:04.869Z,11.27
2019-05-25T07:37:33.294Z,13.80
2019-05-25T07:40:01.710Z,16.67
2019-05-25T07:42:30.200Z,15.53
2019-05-25T07:44:58.707Z,15.10
2019-05-25T07:47:27.108Z,16.60
2019-05-25T07:49:55.523Z,18.27
2019-05-25T07:52:23.967Z,16.40
2019-05-25T07:54:52.374Z,16.10
2019-05-25T07:57:20.808Z,15.83
2019-05-25T07:59:49.246Z,17.73
2019-05-25T08:02:17.678Z,21.37
2019-05-25T08:04:46.080Z,25.60
2019-05-25T08:07:14.513Z,26.90
2019-05-25T08:09:43.014Z,25.83
2019-05-25T08:12:11.452Z,24.60
2019-05-25T08:14:39.874Z,23.93
2019-05-25T08:17:08.315Z,22.60
2019-05-25T08:19:36.809Z,16.30
2019-05-25T08:22:05.388Z,17.33
2019-05-25T08:24:33.797Z,17.20
2019-05-25T08:27:02.215Z,16.93
2019-05-25T08:29:30.648Z,16.30
2019-05-25T08:31:59.058Z,16.97
2019-05-25T08:34:27.502Z,17.50
2019-05-25T08:36:56.002Z,16.17
2019-05-25T08:39:24.458Z,15.20
2019-05-25T08:41:52.939Z,16.20
2019-05-25T08:44:21.376Z,15.20
2019-05-25T08:46:49.805Z,14.43
2019-05-25T08:49:18.234Z,13.80
2019-05-25T08:51:46.676Z,13.03
2019-05-25T08:54:15.140Z,13.20
2019-05-25T08:56:57.023Z,12.10
2019-05-25T08:59:25.696Z,13.23
2019-05-25T09:01:54.125Z,12.13
2019-05-25T09:04:25.508Z,11.80
2019-05-25T09:06:52.777Z,12.20
2019-05-25T09:09:21.285Z,12.07
2019-05-25T09:11:49.794Z,12.73
2019-05-25T09:14:18.208Z,11.90
2019-05-25T09:16:46.611Z,11.73
2019-05-25T09:19:15.055Z,12.17
2019-05-25T09:21:43.454Z,12.77
2019-05-25T09:24:11.995Z,9.90
2019-05-25T09:26:40.413Z,11.40
2019-05-25T09:29:09.211Z,9.73
2019-05-25T09:31:37.712Z,10.37
2019-05-25T09:34:06.119Z,10.60
2019-05-25T09:36:34.549Z,11.73
2019-05-25T09:39:03.055Z,10.47
2019-05-25T09:41:31.502Z,9.87
2019-05-25T09:43:59.905Z,10.63
2019-05-25T09:46:28.333Z,10.33
2019-05-25T09:48:56.853Z,10.17
2019-05-25T09:51:25.275Z,11.20
2019-05-25T09:53:53.752Z,11.50
2019-05-25T09:56:22.156Z,12.03
2019-05-25T09:58:50.556Z,11.30
2019-05-25T10:01:19.068Z,11.10
2019-05-25T10:03:47.487Z,11.73
2019-05-25T10:06:15.922Z,10.60
2019-05-25T10:08:44.326Z,11.03
2019-05-25T10:11:12.829Z,9.70
2019-05-25T10:13:41.242Z,10.53
2019-05-25T10:16:09.720Z,10.00
2019-05-25T10:18:38.179Z,9.80
2019-05-25T10:21:06.584Z,10.50
2019-05-25T10:23:35.486Z,9.57
2019-05-25T10:26:04.004Z,10.53
2019-05-25T10:28:32.410Z,10.00
2019-05-25T10:31:00.901Z,16.53
2019-05-25T10:33:29.344Z,10.90
2019-05-25T10:35:57.756Z,9.07
2019-05-25T10:38:26.164Z,9.70
2019-05-25T10:40:55.535Z,9.97
2019-05-25T10:43:24.736Z,8.00
2019-05-25T10:45:53.172Z,7.83
2019-05-25T10:48:21.677Z,9.40
2019-05-25T10:50:50.076Z,10.27
2019-05-25T10:53:18.493Z,9.50
2019-05-25T10:55:46.938Z,9.50
2019-05-25T10:58:15.358Z,9.50
2019-05-25T11:00:43.771Z,8.90
2019-05-25T11:03:12.206Z,9.23
2019-05-25T11:05:40.616Z,9.10
2019-05-25T11:08:09.019Z,8.87
2019-05-25T11:10:37.456Z,7.83
2019-05-25T11:13:05.949Z,8.10
2019-05-25T11:15:34.379Z,7.57
2019-05-25T11:18:02.848Z,8.50
2019-05-25T11:20:31.316Z,7.70
2019-05-25T11:23:00.317Z,8.20
2019-05-25T11:25:28.695Z,8.43
2019-05-25T11:27:57.163Z,7.87
2019-05-25T11:30:25.695Z,7.63
2019-05-25T11:32:54.131Z,7.07
2019-05-25T11:35:22.770Z,8.07
2019-05-25T11:37:51.244Z,7.80
2019-05-25T11:40:21.011Z,8.90
2019-05-25T11:42:49.509Z,7.60
2019-05-25T11:45:18.769Z,6.97
2019-05-25T11:47:47.235Z,7.90
2019-05-25T11:50:16.029Z,8.43
2019-05-25T11:52:44.511Z,8.00
2019-05-25T11:55:13.234Z,7.53
2019-05-25T11:57:41.803Z,10.63
2019-05-25T12:00:24.369Z,8.50
2019-05-25T12:02:43.635Z,8.53
2019-05-25T12:05:13.497Z,7.87
2019-05-25T12:07:44.584Z,7.10
2019-05-25T12:10:12.968Z,7.93
2019-05-25T12:12:41.467Z,8.90
2019-05-25T12:15:10.587Z,9.20
2019-05-25T12:17:39.007Z,9.17
2019-05-25T12:20:09.002Z,8.50
2019-05-25T12:22:37.443Z,8.00
2019-05-25T12:25:07.505Z,8.40
2019-05-25T12:27:35.898Z,8.40
2019-05-25T12:30:06.665Z,7.63
2019-05-25T12:32:35.164Z,7.80
2019-05-25T12:35:05.337Z,7.33
2019-05-25T12:37:33.751Z,7.83
2019-05-25T12:40:02.484Z,7.40
2019-05-25T12:42:30.856Z,6.97
2019-05-25T12:44:59.376Z,7.20
2019-05-25T12:47:27.831Z,7.30
2019-05-25T12:49:56.218Z,7.37
2019-05-25T12:52:24.645Z,7.70
2019-05-25T12:54:53.046Z,8.13
2019-05-25T12:57:24.110Z,7.80
2019-05-25T12:59:51.621Z,9.00
2019-05-25T13:02:20.110Z,7.73
2019-05-25T13:04:48.557Z,6.20
2019-05-25T13:07:17.051Z,7.00
2019-05-25T13:09:45.522Z,6.30
2019-05-25T13:12:14.029Z,6.70
2019-05-25T13:14:42.441Z,6.57
2019-05-25T13:17:10.923Z,7.13
2019-05-25T13:19:39.399Z,6.03
2019-05-25T13:22:07.827Z,6.30
2019-05-25T13:24:36.243Z,5.83
2019-05-25T13:27:04.806Z,6.60
2019-05-25T13:29:33.279Z,5.73
2019-05-25T13:32:01.768Z,6.27
2019-05-25T13:34:30.307Z,5.40
2019-05-25T13:37:01.689Z,6.00
2019-05-25T13:39:28.884Z,5.40
2019-05-25T13:41:57.344Z,6.20
2019-05-25T13:44:25.835Z,5.30
2019-05-25T13:46:54.322Z,4.67
2019-05-25T13:49:25.440Z,4.70
2019-05-25T13:51:53.852Z,4.77
2019-05-25T13:54:22.277Z,3.80
2019-05-25T13:56:50.782Z,4.50
2019-05-25T13:59:19.314Z,4.13
2019-05-25T14:01:47.817Z,4.23
2019-05-25T14:04:16.296Z,4.40
2019-05-25T14:06:44.736Z,4.50
2019-05-25T14:09:15.871Z,3.80
2019-05-25T14:11:43.364Z,4.50
2019-05-25T14:14:11.787Z,3.67
2019-05-25T14:16:40.205Z,5.20
2019-05-25T14:19:08.662Z,4.43
2019-05-25T14:21:37.084Z,4.73
2019-05-25T14:24:05.595Z,5.23
2019-05-25T14:26:34.011Z,4.53
2019-05-25T14:29:02.531Z,4.30
2019-05-25T14:31:44.446Z,4.10
2019-05-25T14:34:01.166Z,4.17
2019-05-25T14:36:29.586Z,3.60
2019-05-25T14:39:00.852Z,3.50
2019-05-25T14:41:29.258Z,3.33
2019-05-25T14:43:57.681Z,2.90
2019-05-25T14:46:28.245Z,3.50
2019-05-25T14:48:56.312Z,4.30
2019-05-25T14:51:24.747Z,3.30
2019-05-25T14:53:53.160Z,3.10
2019-05-25T14:56:21.586Z,2.40
2019-05-25T14:58:50.357Z,2.93
2019-05-25T15:01:18.730Z,3.07
2019-05-25T15:03:47.114Z,3.10
2019-05-25T15:06:20.545Z,3.30
2019-05-25T15:08:46.147Z,3.27
2019-05-25T15:11:14.566Z,2.90
2019-05-25T15:13:42.987Z,3.20
2019-05-25T15:16:11.468Z,3.30
2019-05-25T15:18:39.903Z,2.83
2019-05-25T15:21:08.310Z,3.37
2019-05-25T15:23:36.811Z,2.80
2019-05-25T15:26:05.651Z,3.20
2019-05-25T15:28:34.099Z,2.97
2019-05-25T15:31:02.578Z,2.47
2019-05-25T15:33:30.997Z,3.00
2019-05-25T15:35:59.406Z,3.50
2019-05-25T15:38:27.821Z,3.10
2019-05-25T15:40:56.236Z,3.33
2019-05-25T15:43:24.653Z,3.23
2019-05-25T15:45:53.086Z,3.10
2019-05-25T15:48:21.654Z,3.23
2019-05-25T15:50:50.054Z,2.70
2019-05-25T15:53:18.540Z,4.90
2019-05-25T15:55:46.921Z,3.20
2019-05-25T15:58:15.449Z,2.80
2019-05-25T16:00:51.327Z,3.00
2019-05-25T16:03:21.625Z,3.23
2019-05-25T16:05:50.557Z,2.87
2019-05-25T16:08:19.804Z,3.07
2019-05-25T16:10:48.857Z,2.93
2019-05-25T16:13:17.745Z,3.10
2019-05-25T16:15:46.129Z,2.93
2019-05-25T16:18:14.523Z,3.40
2019-05-25T16:20:42.954Z,3.80
2019-05-25T16:23:11.460Z,3.43
2019-05-25T16:25:39.859Z,3.00
2019-05-25T16:28:08.267Z,2.40
2019-05-25T16:30:36.775Z,3.43
2019-05-25T16:33:12.606Z,2.97
2019-05-25T16:35:35.609Z,2.60
2019-05-25T16:38:04.235Z,3.17
2019-05-25T16:40:34.127Z,4.00
2019-05-25T16:43:02.575Z,3.67
2019-05-25T16:45:30.983Z,2.93
2019-05-25T16:47:59.461Z,3.20
2019-05-25T16:50:27.949Z,3.03
2019-05-25T16:52:56.366Z,2.77
2019-05-25T16:55:24.798Z,3.10
2019-05-25T16:57:53.288Z,3.70
2019-05-25T17:00:27.320Z,3.07
2019-05-25T17:02:57.238Z,2.90
2019-05-25T17:05:26.535Z,3.10
2019-05-25T17:07:55.032Z,3.30
2019-05-25T17:10:25.330Z,2.80
2019-05-25T17:12:53.729Z,3.37
2019-05-25T17:15:22.490Z,3.07
2019-05-25T17:17:51.553Z,2.93
2019-05-25T17:20:20.098Z,2.90
2019-05-25T17:22:48.524Z,2.90
2019-05-25T17:25:17.679Z,3.23
2019-05-25T17:27:46.145Z,2.73
2019-05-25T17:30:16.551Z,2.70
2019-05-25T17:32:45.039Z,2.80
2019-05-25T17:35:15.119Z,7.20
2019-05-25T17:37:43.606Z,3.10
2019-05-25T17:40:12.675Z,2.40
2019-05-25T17:42:41.258Z,2.93
2019-05-25T17:45:10.034Z,3.10
2019-05-25T17:47:38.559Z,2.80
2019-05-25T17:50:08.143Z,2.77
2019-05-25T17:52:36.548Z,2.90
2019-05-25T17:55:06.883Z,3.00
2019-05-25T17:57:35.386Z,2.93
2019-05-25T18:00:06.526Z,2.97
2019-05-25T18:02:36.837Z,3.67
2019-05-25T18:05:07.575Z,3.60
2019-05-25T18:07:36.095Z,3.40
2019-05-25T18:10:07.801Z,2.43
2019-05-25T18:12:36.282Z,2.77
2019-05-25T18:15:07.761Z,2.77
2019-05-25T18:17:36.214Z,2.20
2019-05-25T18:20:07.426Z,2.77
2019-05-25T18:22:35.869Z,2.30
2019-05-25T18:25:07.922Z,2.80
2019-05-25T18:27:36.349Z,2.30
2019-05-25T18:30:06.785Z,2.50
2019-05-25T18:32:35.198Z,5.10
2019-05-25T18:35:04.899Z,3.00
2019-05-25T18:37:36.356Z,2.50
2019-05-25T18:40:09.696Z,2.50
2019-05-25T18:42:38.309Z,3.20
2019-05-25T18:45:08.146Z,5.73
2019-05-25T18:47:36.657Z,2.70
2019-05-25T18:50:09.875Z,2.50
2019-05-25T18:52:38.343Z,7.40
2019-05-25T18:55:08.624Z,20.20
2019-05-25T18:57:37.114Z,15.00
2019-05-25T19:00:08.809Z,7.97
2019-05-25T19:02:37.507Z,3.00
2019-05-25T19:05:07.247Z,2.90
2019-05-25T19:07:35.922Z,2.70
2019-05-25T19:10:07.031Z,3.43
2019-05-25T19:12:35.639Z,2.30
2019-05-25T19:15:07.376Z,2.70
2019-05-25T19:17:35.788Z,3.20
2019-05-25T19:20:05.981Z,16.93
2019-05-25T19:22:34.471Z,6.33
2019-05-25T19:25:03.065Z,20.50
2019-05-25T19:27:31.486Z,5.13
2019-05-25T19:29:59.888Z,2.70
2019-05-25T19:32:28.461Z,7.37
2019-05-25T19:35:00.038Z,19.90
2019-05-25T19:37:27.144Z,2.93
2019-05-25T19:39:55.682Z,2.87
2019-05-25T19:42:24.126Z,2.70
2019-05-25T19:44:52.542Z,2.60
2019-05-25T19:47:21.000Z,2.60
2019-05-25T19:49:49.511Z,2.37
2019-05-25T19:52:18.083Z,2.90
2019-05-25T19:54:46.504Z,2.30
2019-05-25T19:57:14.994Z,2.60
2019-05-25T19:59:43.571Z,2.33
2019-05-25T20:02:11.986Z,2.53
2019-05-25T20:04:40.502Z,2.50
2019-05-25T20:07:09.064Z,3.10
2019-05-25T20:09:37.512Z,2.93
2019-05-25T20:12:06.000Z,2.63
2019-05-25T20:14:34.399Z,3.30
2019-05-25T20:17:02.940Z,2.53
2019-05-25T20:19:31.413Z,2.97
2019-05-25T20:21:59.848Z,2.97
2019-05-25T20:24:28.304Z,2.23
2019-05-25T20:26:56.719Z,2.80
2019-05-25T20:29:25.164Z,2.97
2019-05-25T20:31:53.591Z,2.80
2019-05-25T20:34:21.999Z,3.40
2019-05-25T20:36:50.504Z,2.83
2019-05-25T20:39:18.904Z,2.60
2019-05-25T20:41:47.383Z,2.83
2019-05-25T20:44:15.910Z,2.53
2019-05-25T20:46:44.347Z,3.70
2019-05-25T20:49:12.857Z,3.20
2019-05-25T20:51:41.256Z,3.20
2019-05-25T20:54:09.701Z,2.80
2019-05-25T20:56:38.124Z,2.87
2019-05-25T20:59:06.609Z,2.50
2019-05-25T21:01:35.084Z,2.40
2019-05-25T21:04:03.664Z,2.80
2019-05-25T21:06:32.108Z,2.97
2019-05-25T21:09:00.610Z,3.07
2019-05-25T21:11:29.092Z,3.07
2019-05-25T21:13:57.529Z,3.03
2019-05-25T21:16:25.995Z,2.70
2019-05-25T21:18:54.436Z,2.30
2019-05-25T21:21:22.869Z,3.03
2019-05-25T21:23:51.300Z,2.77
2019-05-25T21:26:19.711Z,2.67
2019-05-25T21:28:48.108Z,2.87
2019-05-25T21:31:16.561Z,3.37
2019-05-25T21:33:44.967Z,2.80
2019-05-25T21:36:13.480Z,3.13
2019-05-25T21:38:41.907Z,3.20
2019-05-25T21:41:10.349Z,3.97
2019-05-25T21:43:38.825Z,3.00
2019-05-25T21:46:07.306Z,2.73
2019-05-25T21:48:35.734Z,3.43
2019-05-25T21:51:04.176Z,2.90
2019-05-25T21:53:32.598Z,2.80
2019-05-25T21:56:01.071Z,2.80
2019-05-25T21:58:29.512Z,3.30
2019-05-25T22:00:57.995Z,3.10
2019-05-25T22:03:26.550Z,2.83
2019-05-25T22:05:55.060Z,3.40
2019-05-25T22:08:23.565Z,3.33
2019-05-25T22:10:52.071Z,3.30
2019-05-25T22:13:27.993Z,3.10
2019-05-25T22:15:50.644Z,2.87
2019-05-25T22:18:19.936Z,2.90
2019-05-25T22:20:48.408Z,3.77
2019-05-25T22:23:16.845Z,3.20
2019-05-25T22:25:45.245Z,4.33
2019-05-25T22:28:13.669Z,3.13
2019-05-25T22:30:42.114Z,4.23
2019-05-25T22:33:10.559Z,3.47
2019-05-25T22:35:38.960Z,3.07
2019-05-25T22:38:07.456Z,3.23
2019-05-25T22:40:35.906Z,2.93
2019-05-25T22:43:04.387Z,3.30
2019-05-25T22:45:32.869Z,3.33
2019-05-25T22:48:01.274Z,3.50
2019-05-25T22:50:29.682Z,3.70
2019-05-25T22:52:58.104Z,3.60
2019-05-25T22:55:26.523Z,3.63
2019-05-25T22:57:55.005Z,3.70
2019-05-25T23:00:23.654Z,3.60
2019-05-25T23:02:52.065Z,3.80
2019-05-25T23:05:20.712Z,3.70
2019-05-25T23:07:49.114Z,3.83
2019-05-25T23:10:17.761Z,3.80
2019-05-25T23:12:46.195Z,3.37
2019-05-25T23:15:14.874Z,3.90
2019-05-25T23:17:43.286Z,3.90
2019-05-25T23:20:12.552Z,3.10
2019-05-25T23:22:41.117Z,3.43
2019-05-25T23:25:09.704Z,4.20
2019-05-25T23:27:38.134Z,4.00
2019-05-25T23:30:07.288Z,3.73
2019-05-25T23:32:35.717Z,4.00
2019-05-25T23:35:04.954Z,3.70
2019-05-25T23:37:33.467Z,5.00
2019-05-25T23:40:01.892Z,3.93
2019-05-25T23:42:30.307Z,4.10
2019-05-25T23:44:58.706Z,4.30
2019-05-25T23:47:27.126Z,4.23
2019-05-25T23:49:58.856Z,3.77
2019-05-25T23:52:25.686Z,4.10
2019-05-25T23:54:54.107Z,4.37
2019-05-25T23:57:22.506Z,3.80
2019-05-25T23:59:50.939Z,3.67
